Time;durP1;ratioP1;P1;durP2;ratioP2;P2;SDS_P1;SDS_P2;PMS_P1;PMS_P2;Temp;Humidity;BMP_temperature;BMP_pressure;BME280_temperature;BME280_humidity;BME280_pressure;Samples;Min_cycle;Max_cycle;Signal;HPM_P1;HPM_P2
2020/12/21 00:01:39;;;;;;;23.23;21.33;;;;;;;4.05;100.00;95330.47;4975388;28;20441;-72
2020/12/21 00:04:05;;;;;;;22.33;20.70;;;;;;;4.11;100.00;95337.69;4975101;28;20814;-72
2020/12/21 00:06:32;;;;;;;23.77;21.73;;;;;;;4.20;100.00;95339.56;4967649;28;20458;-72
2020/12/21 00:08:59;;;;;;;23.53;21.83;;;;;;;4.30;100.00;95346.56;4956168;29;20446;-72
2020/12/21 00:11:35;;;;;;;24.87;22.77;;;;;;;4.01;100.00;95361.25;4956309;28;20492;-74
2020/12/21 00:14:02;;;;;;;23.27;21.40;;;;;;;3.59;100.00;95365.88;4955906;29;20442;-73
2020/12/21 00:16:35;;;;;;;23.67;21.87;;;;;;;3.57;100.00;95365.16;4956922;28;20446;-73
2020/12/21 00:19:02;;;;;;;24.37;22.17;;;;;;;3.85;100.00;95360.72;4980827;28;20450;-72
2020/12/21 00:21:28;;;;;;;24.13;22.33;;;;;;;3.93;100.00;95360.19;4974489;28;20454;-73
2020/12/21 00:23:56;;;;;;;22.57;20.73;;;;;;;4.00;100.00;95364.75;4967226;28;21187;-70
2020/12/21 00:26:22;;;;;;;22.57;20.87;;;;;;;4.26;100.00;95368.91;4955420;29;20438;-70
2020/12/21 00:28:48;;;;;;;23.57;21.83;;;;;;;4.08;100.00;95381.22;4955493;29;20454;-71
2020/12/21 00:31:21;;;;;;;22.93;21.20;;;;;;;3.85;100.00;95388.75;4955189;29;20444;-71
2020/12/21 00:33:48;;;;;;;22.77;20.90;;;;;;;3.86;100.00;95393.75;4955526;28;20434;-71
2020/12/21 00:36:14;;;;;;;23.03;21.20;;;;;;;3.97;100.00;95394.72;4974475;28;20459;-71
2020/12/21 00:38:41;;;;;;;23.80;22.00;;;;;;;4.06;100.00;95388.97;4958477;28;20481;-72
2020/12/21 00:41:09;;;;;;;21.83;20.37;;;;;;;4.11;100.00;95393.75;4955440;29;20859;-71
2020/12/21 00:43:35;;;;;;;23.23;21.30;;;;;;;4.24;100.00;95394.53;4954745;29;20462;-71
2020/12/21 00:46:02;;;;;;;23.10;21.20;;;;;;;4.14;100.00;95402.94;4955172;28;20853;-71
2020/12/21 00:48:30;;;;;;;22.40;20.97;;;;;;;3.96;100.00;95403.31;4974013;28;20492;-70
2020/12/21 00:50:56;;;;;;;21.57;20.10;;;;;;;4.10;100.00;95400.59;4968555;28;20536;-71
2020/12/21 00:53:23;;;;;;;22.37;20.73;;;;;;;4.10;100.00;95397.25;4961435;28;20441;-71
2020/12/21 00:55:49;;;;;;;22.80;21.10;;;;;;;4.33;100.00;95405.81;4954883;29;20430;-70
2020/12/21 00:58:17;;;;;;;23.07;21.47;;;;;;;4.40;100.00;95418.13;4964140;28;20798;-71
2020/12/21 01:00:44;;;;;;;23.30;21.10;;;;;;;4.28;100.00;95417.28;4964003;28;20460;-71
2020/12/21 01:03:10;;;;;;;22.17;20.60;;;;;;;4.44;100.00;95427.19;4960211;28;20479;-70
2020/12/21 01:05:36;;;;;;;22.43;20.83;;;;;;;4.58;100.00;95411.72;4974360;28;20499;-71
2020/12/21 01:08:03;;;;;;;21.53;20.10;;;;;;;4.53;100.00;95435.91;4956565;28;21047;-71
2020/12/21 01:10:29;;;;;;;23.07;21.20;;;;;;;4.62;100.00;95442.91;4955266;28;20434;-72
2020/12/21 01:12:56;;;;;;;21.60;20.10;;;;;;;4.55;100.00;95441.72;4954706;29;20806;-71
2020/12/21 01:15:23;;;;;;;22.67;21.07;;;;;;;4.42;100.00;95459.63;4954578;28;20500;-71
2020/12/21 01:17:49;;;;;;;22.67;20.87;;;;;;;4.49;100.00;95453.19;4972860;28;20824;-71
2020/12/21 01:20:16;;;;;;;22.90;21.20;;;;;;;4.50;100.00;95456.56;4965408;28;20454;-71
2020/12/21 01:22:42;;;;;;;22.33;20.73;;;;;;;4.47;100.00;95455.84;4954039;28;20508;-71
2020/12/21 01:25:08;;;;;;;21.80;20.30;;;;;;;4.54;100.00;95460.53;4954146;29;21011;-72
2020/12/21 01:27:35;;;;;;;22.60;21.03;;;;;;;4.62;100.00;95459.97;4954864;29;20456;-71
2020/12/21 01:30:02;;;;;;;22.20;20.67;;;;;;;4.54;100.00;95466.44;4953618;28;20447;-71
2020/12/21 01:32:29;;;;;;;21.90;20.40;;;;;;;4.32;100.00;95457.72;4958335;28;20515;-71
2020/12/21 01:34:55;;;;;;;23.27;21.50;;;;;;;4.47;100.00;95470.34;4973389;28;20499;-71
2020/12/21 01:37:22;;;;;;;23.13;21.10;;;;;;;4.34;100.00;95467.84;4957203;28;20504;-71
2020/12/21 01:39:49;;;;;;;23.50;21.80;;;;;;;4.54;100.00;95470.72;4953930;29;20457;-71
2020/12/21 01:42:16;;;;;;;23.43;21.27;;;;;;;4.48;100.00;95454.09;4954131;29;20466;-72
2020/12/21 01:44:43;;;;;;;21.60;20.20;;;;;;;4.51;100.00;95481.97;4953726;29;20445;-74
2020/12/21 01:47:10;;;;;;;22.20;20.70;;;;;;;4.45;100.00;95480.66;4954146;29;20530;-73
2020/12/21 01:49:38;;;;;;;23.07;21.37;;;;;;;4.50;100.00;95476.97;4955265;28;20512;-73
2020/12/21 01:52:06;;;;;;;22.50;21.03;;;;;;;4.35;100.00;95470.28;4954141;29;20441;-73
2020/12/21 01:54:33;;;;;;;22.93;21.20;;;;;;;3.98;100.00;95478.75;4971049;28;20452;-73
2020/12/21 01:57:00;;;;;;;22.90;21.30;;;;;;;4.30;100.00;95474.88;4972851;28;20433;-73
2020/12/21 01:59:27;;;;;;;22.33;20.83;;;;;;;4.10;100.00;95471.19;4971006;28;20557;-72
2020/12/21 02:01:53;;;;;;;22.20;20.60;;;;;;;4.13;100.00;95476.06;4953652;29;21145;-73
2020/12/21 02:04:20;;;;;;;23.17;21.33;;;;;;;3.88;100.00;95475.19;4967889;28;20789;-73
2020/12/21 02:06:48;;;;;;;23.90;21.20;;;;;;;4.03;100.00;95460.59;4973694;28;20447;-73
2020/12/21 02:09:14;;;;;;;23.23;21.43;;;;;;;4.30;100.00;95467.22;4972792;28;20453;-73
2020/12/21 02:11:41;;;;;;;23.20;21.50;;;;;;;4.15;100.00;95458.09;4973682;28;20481;-72
2020/12/21 02:14:08;;;;;;;23.07;21.37;;;;;;;4.14;100.00;95454.75;4971263;28;20441;-73
2020/12/21 02:16:35;;;;;;;22.47;20.83;;;;;;;4.21;100.00;95458.47;4962360;28;20447;-72
2020/12/21 02:19:01;;;;;;;23.40;21.53;;;;;;;4.17;100.00;95443.50;4962168;28;20864;-73
2020/12/21 02:21:28;;;;;;;22.90;21.20;;;;;;;4.26;100.00;95442.88;4953514;29;20856;-73
2020/12/21 02:23:55;;;;;;;22.80;21.00;;;;;;;4.42;100.00;95441.78;4953190;29;20544;-73
2020/12/21 02:26:21;;;;;;;22.00;20.30;;;;;;;4.54;100.00;95437.56;4962853;28;20937;-73
2020/12/21 02:28:51;;;;;;;23.33;21.67;;;;;;;4.51;100.00;95438.59;4971313;28;20445;-73
2020/12/21 02:31:17;;;;;;;22.27;20.50;;;;;;;4.62;100.00;95440.38;4953406;29;20452;-73
2020/12/21 02:33:44;;;;;;;23.60;21.50;;;;;;;4.61;100.00;95453.25;4963319;28;20444;-73
2020/12/21 02:36:10;;;;;;;22.30;20.63;;;;;;;4.39;100.00;95459.88;4954694;28;20528;-73
2020/12/21 02:38:38;;;;;;;22.30;20.40;;;;;;;4.28;100.00;95456.31;4953375;29;20458;-73
2020/12/21 02:41:04;;;;;;;22.23;20.53;;;;;;;4.16;100.00;95452.09;4964285;28;20988;-72
2020/12/21 02:43:30;;;;;;;21.63;19.77;;;;;;;4.24;100.00;95442.97;4975869;28;20853;-72
2020/12/21 02:45:57;;;;;;;22.43;20.87;;;;;;;4.45;100.00;95437.31;4968295;28;20512;-73
2020/12/21 02:48:23;;;;;;;23.23;21.03;;;;;;;4.49;100.00;95440.44;4958197;28;20446;-73
2020/12/21 02:50:50;;;;;;;22.43;20.50;;;;;;;4.51;100.00;95442.88;4976193;28;20441;-73
2020/12/21 02:53:17;;;;;;;22.80;20.53;;;;;;;4.63;100.00;95442.00;4968386;28;20443;-74
2020/12/21 02:55:44;;;;;;;23.13;21.10;;;;;;;4.53;100.00;95446.94;4956802;29;20446;-71
2020/12/21 02:58:11;;;;;;;22.37;20.80;;;;;;;4.60;100.00;95433.75;4962475;28;20464;-71
2020/12/21 03:00:38;;;;;;;22.27;20.67;;;;;;;4.81;100.00;95467.13;4976151;28;20503;-73
2020/12/21 03:03:05;;;;;;;22.77;21.03;;;;;;;4.93;100.00;95461.13;4975977;28;20473;-71
2020/12/21 03:05:32;;;;;;;22.43;20.80;;;;;;;4.98;100.00;95465.91;4964290;28;20458;-71
2020/12/21 03:07:59;;;;;;;23.50;21.80;;;;;;;5.02;100.00;95472.41;4956576;28;20438;-72
2020/12/21 03:10:25;;;;;;;22.27;20.80;;;;;;;4.89;100.00;95471.69;4963511;28;20796;-72
2020/12/21 03:12:53;;;;;;;23.03;21.33;;;;;;;5.11;100.00;95490.53;4973420;28;20473;-71
2020/12/21 03:15:20;;;;;;;22.37;20.80;;;;;;;5.16;100.00;95483.38;4966658;28;20476;-71
2020/12/21 03:17:46;;;;;;;22.40;20.87;;;;;;;5.09;100.00;95488.09;4975313;28;20449;-71
2020/12/21 03:20:12;;;;;;;22.57;20.90;;;;;;;5.11;100.00;95483.69;4959282;28;20448;-71
2020/12/21 03:22:39;;;;;;;21.90;20.40;;;;;;;5.12;100.00;95487.91;4959604;28;20551;-71
2020/12/21 03:25:06;;;;;;;24.10;22.30;;;;;;;5.09;100.00;95485.56;4975680;28;20454;-71
2020/12/21 03:27:33;;;;;;;22.70;21.20;;;;;;;4.95;100.00;95476.34;4973545;28;20441;-71
2020/12/21 03:30:00;;;;;;;24.07;21.70;;;;;;;5.05;100.00;95481.59;4960340;28;20479;-71
2020/12/21 03:32:27;;;;;;;23.40;21.60;;;;;;;4.88;100.00;95495.59;4975315;28;20449;-71
2020/12/21 03:34:53;;;;;;;23.50;21.77;;;;;;;5.00;100.00;95491.31;4975611;28;20534;-71
2020/12/21 03:37:19;;;;;;;22.73;21.13;;;;;;;5.10;100.00;95487.19;4975339;28;20437;-71
2020/12/21 03:39:46;;;;;;;21.87;20.43;;;;;;;5.24;100.00;95485.38;4973427;28;20468;-71
2020/12/21 03:42:12;;;;;;;23.47;21.60;;;;;;;5.27;100.00;95488.50;4955875;29;20470;-72
2020/12/21 03:44:39;;;;;;;23.37;21.53;;;;;;;5.26;100.00;95479.22;4956211;29;20933;-72
2020/12/21 03:47:06;;;;;;;23.20;21.50;;;;;;;5.05;100.00;95486.72;4956672;29;20491;-71
2020/12/21 03:49:33;;;;;;;24.17;22.17;;;;;;;5.17;100.00;95492.66;4960984;28;20867;-71
2020/12/21 03:51:59;;;;;;;23.50;21.33;;;;;;;5.29;100.00;95485.84;4958699;28;20456;-71
2020/12/21 03:54:26;;;;;;;23.33;21.60;;;;;;;5.21;100.00;95493.25;4974506;28;20449;-71
2020/12/21 03:56:52;;;;;;;22.90;21.23;;;;;;;4.64;100.00;95494.66;4974941;28;20967;-71
2020/12/21 03:59:18;;;;;;;23.20;21.30;;;;;;;4.67;100.00;95486.78;4974854;28;20434;-73
2020/12/21 04:01:45;;;;;;;22.30;20.77;;;;;;;4.83;100.00;95477.22;4975113;28;20449;-73
2020/12/21 04:04:12;;;;;;;23.10;21.10;;;;;;;4.98;100.00;95480.41;4974469;28;20442;-73
2020/12/21 04:06:39;;;;;;;24.00;22.00;;;;;;;4.85;100.00;95491.50;4964983;28;20448;-71
2020/12/21 04:09:06;;;;;;;22.20;20.70;;;;;;;4.85;100.00;95491.50;4955603;29;20486;-74
2020/12/21 04:11:32;;;;;;;23.60;21.37;;;;;;;4.84;100.00;95491.63;4970594;28;20571;-71
2020/12/21 04:13:58;;;;;;;24.17;22.17;;;;;;;4.75;100.00;95477.78;4961067;28;20504;-72
2020/12/21 04:16:25;;;;;;;24.53;22.63;;;;;;;4.73;100.00;95489.84;4955657;28;20458;-72
2020/12/21 04:18:52;;;;;;;23.70;21.77;;;;;;;4.87;100.00;95465.88;4972567;28;20551;-72
2020/12/21 04:21:19;;;;;;;23.90;22.00;;;;;;;4.96;100.00;95472.88;4955225;29;20442;-73
2020/12/21 04:23:45;;;;;;;23.57;21.30;;;;;;;4.84;100.00;95466.09;4954890;29;20490;-72
2020/12/21 04:26:12;;;;;;;23.87;21.73;;;;;;;4.92;100.00;95472.28;4955558;29;20442;-72
2020/12/21 04:28:39;;;;;;;24.10;21.90;;;;;;;4.89;100.00;95477.59;4954987;28;20446;-72
2020/12/21 04:31:07;;;;;;;24.03;22.17;;;;;;;4.94;100.00;95451.75;4961834;28;20459;-73
2020/12/21 04:33:34;;;;;;;25.27;22.93;;;;;;;4.91;100.00;95469.81;4974046;28;20429;-72
2020/12/21 04:36:01;;;;;;;27.47;24.77;;;;;;;4.93;100.00;95468.78;4955319;29;20812;-72
2020/12/21 04:38:28;;;;;;;24.03;21.93;;;;;;;4.91;100.00;95452.78;4955050;28;20481;-72
2020/12/21 04:41:01;;;;;;;25.50;23.20;;;;;;;4.86;100.00;95479.56;4961272;28;20975;-73
2020/12/21 04:43:31;;;;;;;24.10;22.10;;;;;;;5.03;100.00;95473.25;4972764;28;20862;-71
2020/12/21 04:46:00;;;;;;;24.73;22.43;;;;;;;5.15;100.00;95469.78;4971822;28;20461;-72
2020/12/21 04:48:30;;;;;;;24.10;22.10;;;;;;;4.81;100.00;95473.06;4973731;28;20445;-73
2020/12/21 04:50:56;;;;;;;23.83;22.03;;;;;;;4.46;100.00;95459.31;4973802;28;20437;-72
2020/12/21 04:53:24;;;;;;;26.93;24.73;;;;;;;4.69;100.00;95463.72;4973709;28;20965;-72
2020/12/21 04:55:59;;;;;;;24.83;22.80;;;;;;;4.70;100.00;95438.06;4973762;28;20473;-73
2020/12/21 04:58:25;;;;;;;26.47;24.10;;;;;;;4.77;100.00;95466.53;4956458;28;20452;-73
2020/12/21 05:00:52;;;;;;;23.73;22.00;;;;;;;4.50;100.00;95467.59;4954088;29;20446;-72
2020/12/21 05:03:18;;;;;;;25.70;23.70;;;;;;;4.17;100.00;95462.16;4969464;28;20469;-72
2020/12/21 05:05:44;;;;;;;30.97;27.60;;;;;;;4.41;100.00;95450.38;4967980;28;20454;-72
2020/12/21 05:08:15;;;;;;;28.27;25.57;;;;;;;4.67;100.00;95447.69;4974066;28;20437;-72
2020/12/21 05:10:43;;;;;;;191.23;97.27;;;;;;;4.26;100.00;95449.72;4974035;28;20440;-73
2020/12/21 05:13:11;;;;;;;27.70;24.80;;;;;;;4.26;100.00;95453.06;4973931;28;20501;-71
2020/12/21 05:15:38;;;;;;;23.70;21.90;;;;;;;4.40;100.00;95424.03;4955166;28;20456;-73
2020/12/21 05:18:06;;;;;;;24.73;22.67;;;;;;;4.76;100.00;95436.00;4954059;29;20469;-71
2020/12/21 05:20:33;;;;;;;26.43;23.87;;;;;;;4.58;100.00;95411.72;4954478;29;20930;-73
2020/12/21 05:22:59;;;;;;;341.90;155.10;;;;;;;4.45;100.00;95410.97;4966788;28;20991;-71
2020/12/21 05:25:26;;;;;;;74.57;51.70;;;;;;;4.68;100.00;95403.41;4973072;28;20444;-72
2020/12/21 05:27:52;;;;;;;32.77;26.70;;;;;;;4.89;100.00;95428.28;4969921;28;20442;-70
2020/12/21 05:30:20;;;;;;;30.00;26.77;;;;;;;4.87;100.00;95430.94;4967336;28;20536;-72
2020/12/21 05:32:46;;;;;;;24.83;23.03;;;;;;;4.62;100.00;95426.78;4972833;28;20444;-67
2020/12/21 05:35:14;;;;;;;25.50;23.27;;;;;;;4.28;100.00;95430.81;4973139;28;20515;-72
2020/12/21 05:37:41;;;;;;;96.20;54.87;;;;;;;4.33;100.00;95418.56;4971157;28;20507;-74
2020/12/21 05:40:09;;;;;;;76.50;49.40;;;;;;;4.48;100.00;95413.28;4953792;29;20453;-69
2020/12/21 05:42:36;;;;;;;30.43;27.33;;;;;;;4.70;100.00;95402.34;4953934;29;20463;-71
2020/12/21 05:45:06;;;;;;;25.97;23.73;;;;;;;4.68;100.00;95408.50;4970677;28;20449;-72
2020/12/21 05:47:35;;;;;;;25.97;23.30;;;;;;;4.87;100.00;95410.53;4973264;28;20453;-72
2020/12/21 05:50:06;;;;;;;24.00;22.00;;;;;;;4.74;100.00;95407.25;4972828;28;20447;-73
2020/12/21 05:52:33;;;;;;;26.73;24.30;;;;;;;4.84;100.00;95426.06;4973163;28;20499;-73
2020/12/21 05:55:06;;;;;;;23.77;21.90;;;;;;;4.46;100.00;95436.34;4973183;28;20449;-72
2020/12/21 05:57:33;;;;;;;24.83;22.67;;;;;;;4.50;100.00;95428.50;4972792;28;20422;-72
2020/12/21 06:00:00;;;;;;;28.13;23.07;;;;;;;4.07;100.00;95418.66;4957487;28;20812;-72
2020/12/21 06:02:30;;;;;;;29.80;23.77;;;;;;;4.40;100.00;95420.69;4953783;29;20466;-71
2020/12/21 06:05:02;;;;;;;23.97;21.90;;;;;;;4.58;100.00;95414.28;4953537;29;20430;-72
2020/12/21 06:07:31;;;;;;;25.00;23.03;;;;;;;4.77;100.00;95412.13;4953278;29;20439;-71
2020/12/21 06:09:59;;;;;;;25.03;22.77;;;;;;;4.85;100.00;95403.91;4953857;29;20438;-70
2020/12/21 06:12:27;;;;;;;25.03;22.57;;;;;;;4.92;100.00;95410.19;4953904;28;20839;-74
2020/12/21 06:14:57;;;;;;;133.70;73.50;;;;;;;4.81;100.00;95406.69;4953485;29;20453;-70
2020/12/21 06:17:24;;;;;;;30.00;26.80;;;;;;;4.83;100.00;95421.06;4956754;28;20438;-75
2020/12/21 06:20:03;;;;;;;27.17;24.67;;;;;;;4.66;100.00;95420.56;4959712;28;20488;-72
2020/12/21 06:22:29;;;;;;;27.30;24.50;;;;;;;4.64;100.00;95423.22;4957135;29;20466;-71
2020/12/21 06:24:55;;;;;;;29.07;26.30;;;;;;;4.70;100.00;95404.91;4956825;29;20481;-71
2020/12/21 06:27:25;;;;;;;27.77;25.20;;;;;;;4.54;100.00;95384.00;4957630;29;20442;-72
2020/12/21 06:30:14;;;;;;;25.63;23.60;;;;;;;4.83;100.00;95419.34;4956893;29;20468;-73
2020/12/21 06:32:40;;;;;;;24.67;22.77;;;;;;;4.69;100.00;95405.84;4951892;29;20980;-73
2020/12/21 06:35:19;;;;;;;25.83;23.53;;;;;;;4.61;100.00;95410.69;4957472;29;20509;-71
2020/12/21 06:37:58;;;;;;;24.40;22.03;;;;;;;4.97;100.00;95430.28;4957383;28;20445;-71
2020/12/21 06:40:30;;;;;;;25.97;23.67;;;;;;;4.75;100.00;95411.44;4956720;29;20418;-71
2020/12/21 06:43:10;;;;;;;26.73;24.23;;;;;;;4.79;100.00;95380.44;4956558;29;20470;-71
2020/12/21 06:45:38;;;;;;;28.70;26.00;;;;;;;5.26;100.00;95422.22;4957072;29;20469;-70
2020/12/21 06:48:26;;;;;;;27.90;25.30;;;;;;;5.04;100.00;95416.94;4957625;29;20505;-70
2020/12/21 06:51:41;;;;;;;26.97;24.20;;;;;;;5.02;100.00;95384.78;4957152;29;20443;-71
2020/12/21 06:54:29;;;;;;;26.60;23.93;;;;;;;5.43;100.00;95435.47;4956862;29;20433;-71
2020/12/21 06:56:55;;;;;;;27.37;24.97;;;;;;;5.48;100.00;95443.59;4951758;29;20831;-73
2020/12/21 06:59:23;;;;;;;27.00;24.60;;;;;;;5.46;100.00;95437.81;4955359;29;20509;-72
2020/12/21 07:01:50;;;;;;;27.40;24.60;;;;;;;5.53;100.00;95472.19;4957341;28;20456;-72
2020/12/21 07:04:18;;;;;;;26.97;24.17;;;;;;;5.48;100.00;95433.38;4956037;29;20470;-74
2020/12/21 07:06:47;;;;;;;28.93;26.03;;;;;;;5.57;100.00;95440.38;4971279;28;21022;-72
2020/12/21 07:09:24;;;;;;;26.47;23.97;;;;;;;5.53;100.00;95444.09;4976147;28;20790;-70
2020/12/21 07:11:54;;;;;;;40.70;25.43;;;;;;;5.60;100.00;95444.44;4976588;28;20499;-70
2020/12/21 07:14:25;;;;;;;28.70;25.77;;;;;;;5.32;100.00;95400.50;4975936;28;20437;-70
2020/12/21 07:17:02;;;;;;;26.67;24.07;;;;;;;5.70;100.00;95454.75;4959053;28;20466;-69
2020/12/21 07:19:28;;;;;;;27.40;24.00;;;;;;;5.68;100.00;95460.00;4956378;29;20901;-70
2020/12/21 07:21:58;;;;;;;28.00;25.40;;;;;;;5.59;100.00;95453.03;4956585;28;20548;-72
2020/12/21 07:24:24;;;;;;;25.90;23.53;;;;;;;5.61;100.00;95481.81;4975929;28;20878;-71
2020/12/21 07:26:52;;;;;;;26.60;23.97;;;;;;;5.67;100.00;95478.81;4975261;28;20442;-70
2020/12/21 07:29:18;;;;;;;28.30;25.70;;;;;;;5.72;100.00;95484.41;4974212;28;20810;-70
2020/12/21 07:31:45;;;;;;;30.47;27.37;;;;;;;5.49;100.00;95502.25;4974496;28;20450;-70
2020/12/21 07:34:11;;;;;;;30.33;27.27;;;;;;;5.46;100.00;95474.38;4974835;28;20449;-70
2020/12/21 07:36:38;;;;;;;29.47;26.53;;;;;;;5.62;100.00;95486.03;4975234;28;20575;-71
2020/12/21 07:39:07;;;;;;;33.63;27.50;;;;;;;5.59;100.00;95489.63;4975360;28;20442;-70
2020/12/21 07:41:34;;;;;;;32.10;27.80;;;;;;;5.47;100.00;95495.63;4974870;28;20458;-71
2020/12/21 07:44:05;;;;;;;29.67;26.73;;;;;;;5.45;100.00;95494.91;4958331;28;20850;-70
2020/12/21 07:46:39;;;;;;;28.23;25.47;;;;;;;5.07;100.00;95491.69;4955675;29;20438;-70
2020/12/21 07:49:07;;;;;;;27.93;25.13;;;;;;;5.07;100.00;95481.47;4956612;29;20509;-70
2020/12/21 07:51:35;;;;;;;36.97;26.60;;;;;;;4.84;100.00;95445.69;4958993;28;20450;-70
2020/12/21 07:54:02;;;;;;;30.67;27.23;;;;;;;4.77;100.00;95471.63;4955414;28;20450;-71
2020/12/21 07:56:30;;;;;;;31.87;26.73;;;;;;;4.58;100.00;95451.72;4973479;28;20445;-71
2020/12/21 07:58:56;;;;;;;30.90;26.63;;;;;;;4.95;100.00;95461.00;4974528;28;20438;-72
2020/12/21 08:01:23;;;;;;;29.03;25.93;;;;;;;4.78;100.00;95457.97;4973190;28;20437;-69
2020/12/21 08:03:52;;;;;;;29.10;24.77;;;;;;;4.83;100.00;95432.09;4972812;28;20992;-69
2020/12/21 08:06:22;;;;;;;29.23;26.27;;;;;;;4.68;100.00;95442.47;4972973;28;20449;-69
2020/12/21 08:08:50;;;;;;;28.37;25.13;;;;;;;4.97;100.00;95423.44;4973200;28;20499;-70
2020/12/21 08:11:18;;;;;;;28.67;26.07;;;;;;;5.09;100.00;95447.25;4974090;28;20437;-69
2020/12/21 08:13:50;;;;;;;33.10;25.93;;;;;;;4.83;100.00;95447.41;4973821;28;20429;-69
2020/12/21 08:16:24;;;;;;;28.37;25.67;;;;;;;5.02;100.00;95443.50;4974048;28;20469;-69
2020/12/21 08:18:55;;;;;;;27.67;25.07;;;;;;;4.98;100.00;95408.94;4975588;28;20453;-69
2020/12/21 08:21:23;;;;;;;28.77;25.70;;;;;;;4.68;100.00;95385.53;4974234;28;20464;-68
2020/12/21 08:23:55;;;;;;;30.63;25.67;;;;;;;5.00;100.00;95435.16;4973536;28;20516;-69
2020/12/21 08:26:23;;;;;;;28.73;25.77;;;;;;;5.24;100.00;95416.41;4973756;28;20441;-68
2020/12/21 08:28:50;;;;;;;32.00;26.37;;;;;;;5.27;100.00;95405.97;4973775;28;20796;-69
2020/12/21 08:31:19;;;;;;;28.43;25.43;;;;;;;5.34;100.00;95412.25;4973630;28;20626;-71
2020/12/21 08:33:58;;;;;;;31.73;26.73;;;;;;;5.38;100.00;95410.25;4973848;28;20779;-71
2020/12/21 08:36:27;;;;;;;30.60;27.37;;;;;;;5.29;100.00;95446.72;4974123;28;20453;-71
2020/12/21 08:38:54;;;;;;;29.83;26.73;;;;;;;5.40;100.00;95428.03;4973570;28;20448;-70
2020/12/21 08:41:21;;;;;;;29.93;26.80;;;;;;;5.59;100.00;95423.19;4973256;28;20735;-70
2020/12/21 08:43:48;;;;;;;29.97;26.73;;;;;;;5.51;100.00;95392.25;4973751;28;20473;-70
2020/12/21 08:46:15;;;;;;;32.90;25.93;;;;;;;5.70;100.00;95417.25;4973564;28;20520;-70
2020/12/21 08:48:43;;;;;;;31.73;28.07;;;;;;;5.74;100.00;95430.59;4973217;28;20436;-69
2020/12/21 08:51:11;;;;;;;33.00;29.57;;;;;;;5.83;100.00;95439.31;4973377;28;20442;-69
2020/12/21 08:53:38;;;;;;;31.30;27.00;;;;;;;5.89;100.00;95435.47;4973153;28;20453;-70
2020/12/21 08:56:15;;;;;;;34.03;27.80;;;;;;;5.95;100.00;95446.06;4973415;28;20443;-69
2020/12/21 08:58:41;;;;;;;29.47;26.63;;;;;;;5.65;100.00;95439.78;4974299;28;20524;-69
2020/12/21 09:01:08;;;;;;;32.40;27.50;;;;;;;5.86;100.00;95448.50;4973405;28;20448;-69
2020/12/21 09:03:36;;;;;;;37.50;27.67;;;;;;;5.93;100.00;95452.22;4973662;28;20557;-70
2020/12/21 09:06:04;;;;;;;30.27;27.10;;;;;;;5.98;100.00;95450.09;4973578;28;20803;-70
2020/12/21 09:08:31;;;;;;;29.50;26.50;;;;;;;5.89;100.00;95431.16;4973325;28;20449;-70
2020/12/21 09:10:57;;;;;;;28.37;25.50;;;;;;;5.84;100.00;95423.88;4973758;28;21053;-70
2020/12/21 09:13:24;;;;;;;31.03;27.37;;;;;;;6.10;100.00;95450.13;4973718;28;20477;-70
2020/12/21 09:15:50;;;;;;;28.77;26.00;;;;;;;6.16;100.00;95459.91;4972839;28;20823;-68
2020/12/21 09:18:17;;;;;;;31.53;27.50;;;;;;;5.73;100.00;95472.44;4973362;28;20445;-68
2020/12/21 09:20:45;;;;;;;32.70;27.13;;;;;;;5.79;100.00;95464.31;4972773;28;20449;-68
2020/12/21 09:23:12;;;;;;;29.93;26.83;;;;;;;5.83;100.00;95468.25;4972615;28;20865;-70
2020/12/21 09:26:11;;;;;;;29.23;26.00;;;;;;;5.29;100.00;95459.50;4972497;28;20836;-70
2020/12/21 09:31:41;;;;;;;36.70;26.47;;;;;;;5.41;100.00;95458.56;4946748;28;20535;-71
2020/12/21 09:34:07;;;;;;;28.70;25.70;;;;;;;5.65;100.00;95460.22;4972564;28;20450;-70
2020/12/21 09:36:35;;;;;;;30.27;27.03;;;;;;;5.42;100.00;95459.41;4972739;28;20475;-70
2020/12/21 09:39:03;;;;;;;31.63;28.20;;;;;;;5.57;100.00;95455.69;4973425;28;20441;-70
2020/12/21 09:41:30;;;;;;;29.33;26.33;;;;;;;5.61;100.00;95458.81;4972927;28;20446;-69
2020/12/21 09:43:56;;;;;;;29.27;26.27;;;;;;;5.34;100.00;95450.56;4972197;28;20473;-70
2020/12/21 09:46:25;;;;;;;29.77;26.87;;;;;;;5.48;100.00;95448.72;4972137;28;20437;-71
2020/12/21 09:48:52;;;;;;;29.73;26.97;;;;;;;5.45;100.00;95456.59;4972737;28;20445;-71
2020/12/21 09:51:18;;;;;;;30.77;27.50;;;;;;;5.44;100.00;95460.09;4972469;28;20825;-69
2020/12/21 09:53:46;;;;;;;32.83;29.40;;;;;;;4.68;100.00;95464.66;4972175;28;20456;-69
2020/12/21 09:56:16;;;;;;;37.20;29.97;;;;;;;4.82;100.00;95430.47;4972591;28;20532;-73
2020/12/21 09:58:45;;;;;;;34.30;29.57;;;;;;;4.88;100.00;95440.25;4971836;28;20578;-70
2020/12/21 10:01:11;;;;;;;33.43;27.77;;;;;;;4.79;100.00;95416.19;4971837;28;20798;-71
2020/12/21 10:03:39;;;;;;;31.67;27.40;;;;;;;5.13;100.00;95433.31;4972127;28;20477;-70
2020/12/21 10:06:07;;;;;;;30.53;27.53;;;;;;;5.20;100.00;95418.38;4972256;28;20437;-72
2020/12/21 10:08:34;;;;;;;34.60;29.67;;;;;;;5.60;100.00;95429.91;4971964;28;20487;-70
2020/12/21 10:11:01;;;;;;;31.80;27.57;;;;;;;5.72;100.00;95435.00;4971581;28;20433;-70
2020/12/21 10:13:27;;;;;;;34.30;27.90;;;;;;;5.55;100.00;95429.44;4971949;28;20480;-69
2020/12/21 10:15:54;;;;;;;31.70;28.53;;;;;;;5.34;100.00;95435.22;4972611;28;20931;-70
2020/12/21 10:18:20;;;;;;;30.87;27.90;;;;;;;5.53;100.00;95426.19;4972435;28;20444;-71
2020/12/21 10:20:46;;;;;;;36.27;28.80;;;;;;;5.61;100.00;95428.97;4972282;28;20970;-72
2020/12/21 10:23:14;;;;;;;35.00;28.53;;;;;;;5.60;100.00;95426.56;4972108;28;20480;-72
2020/12/21 10:25:41;;;;;;;32.00;27.50;;;;;;;5.75;100.00;95421.19;4972161;28;20992;-72
2020/12/21 10:28:08;;;;;;;30.00;26.90;;;;;;;5.78;100.00;95426.88;4971865;28;20499;-71
2020/12/21 10:30:35;;;;;;;33.70;30.20;;;;;;;5.93;100.00;95421.53;4971601;28;20526;-72
2020/12/21 10:33:01;;;;;;;34.70;30.90;;;;;;;5.97;100.00;95422.91;4971902;28;20434;-74
2020/12/21 10:35:28;;;;;;;42.13;30.97;;;;;;;5.87;100.00;95433.03;4971902;28;20517;-73
2020/12/21 10:37:54;;;;;;;46.53;31.47;;;;;;;6.01;100.00;95431.16;4971945;28;20438;-72
2020/12/21 10:40:27;;;;;;;32.07;28.77;;;;;;;6.15;100.00;95425.00;4971557;28;20454;-72
2020/12/21 10:42:54;;;;;;;53.17;35.37;;;;;;;5.99;100.00;95412.56;4971764;28;20554;-71
2020/12/21 10:45:22;;;;;;;46.13;33.40;;;;;;;6.16;100.00;95422.31;4971579;28;20464;-70
2020/12/21 10:47:49;;;;;;;41.20;32.17;;;;;;;6.13;100.00;95427.69;4971582;28;20445;-71
2020/12/21 10:50:22;;;;;;;51.53;35.73;;;;;;;6.27;100.00;95434.25;4972014;28;20445;-71
2020/12/21 10:52:48;;;;;;;55.03;36.97;;;;;;;6.34;100.00;95444.84;4971828;28;20492;-71
2020/12/21 10:55:14;;;;;;;48.47;37.27;;;;;;;6.28;100.00;95450.44;4972126;28;20463;-70
2020/12/21 10:57:41;;;;;;;46.60;35.70;;;;;;;6.21;100.00;95457.78;4971796;28;20437;-71
2020/12/21 11:00:07;;;;;;;54.30;34.77;;;;;;;6.09;100.00;95457.00;4971719;28;20451;-71
2020/12/21 11:02:35;;;;;;;44.27;33.57;;;;;;;6.05;100.00;95453.81;4971929;28;20920;-71
2020/12/21 11:05:01;;;;;;;38.50;32.43;;;;;;;6.25;100.00;95458.38;4975986;28;20440;-72
2020/12/21 11:07:28;;;;;;;42.57;34.87;;;;;;;6.29;100.00;95468.22;4975647;28;20453;-72
2020/12/21 11:09:55;;;;;;;50.83;34.77;;;;;;;5.98;100.00;95464.66;4975177;28;20444;-71
2020/12/21 11:12:23;;;;;;;41.83;33.40;;;;;;;5.78;100.00;95465.22;4975488;28;20583;-71
2020/12/21 11:14:49;;;;;;;38.37;30.87;;;;;;;5.64;100.00;95468.00;4975016;28;20457;-73
2020/12/21 11:17:15;;;;;;;49.07;33.60;;;;;;;5.90;100.00;95470.31;4975441;28;20869;-71
2020/12/21 11:19:43;;;;;;;47.40;33.80;;;;;;;5.81;100.00;95457.31;4975004;28;20437;-73
2020/12/21 11:22:09;;;;;;;39.63;30.83;;;;;;;5.90;100.00;95455.00;4975200;28;20441;-73
2020/12/21 11:24:36;;;;;;;37.83;30.50;;;;;;;5.93;100.00;95459.88;4975002;28;20841;-73